createdAt,value
2022-09-05T00:00:26.060Z,2.73
2022-09-05T00:02:28.346Z,2.77
2022-09-05T00:04:24.764Z,3.10
2022-09-05T00:06:06.729Z,3.17
2022-09-05T00:07:59.738Z,2.50
2022-09-05T00:09:57.807Z,2.37
2022-09-05T00:11:41.157Z,2.80
2022-09-05T00:13:20.652Z,3.10
2022-09-05T00:15:17.536Z,3.30
2022-09-05T00:17:04.875Z,3.20
2022-09-05T00:23:29.038Z,3.63
2022-09-05T00:24:23.091Z,3.57
2022-09-05T00:24:34.844Z,4.03
2022-09-05T00:25:31.009Z,3.80
2022-09-05T00:27:11.616Z,4.30
2022-09-05T00:28:55.158Z,3.80
2022-09-05T00:31:08.949Z,3.87
2022-09-05T00:32:32.947Z,3.80
2022-09-05T00:34:18.821Z,4.20
2022-09-05T00:36:13.409Z,3.60
2022-09-05T00:37:50.065Z,4.10
2022-09-05T00:39:27.609Z,4.20
2022-09-05T00:41:02.287Z,3.83
2022-09-05T00:42:35.700Z,4.63
2022-09-05T00:44:10.527Z,4.20
2022-09-05T00:45:47.569Z,5.10
2022-09-05T00:47:33.405Z,5.23
2022-09-05T00:49:18.586Z,5.40
2022-09-05T00:51:15.527Z,5.57
2022-09-05T00:53:07.441Z,4.97
2022-09-05T00:55:13.821Z,4.43
2022-09-05T00:57:00.992Z,5.10
2022-09-05T00:58:58.456Z,4.50
2022-09-05T01:00:44.627Z,4.57
2022-09-05T01:02:26.316Z,4.40
2022-09-05T01:04:18.321Z,4.73
2022-09-05T01:06:07.446Z,5.07
2022-09-05T01:07:59.418Z,5.40
2022-09-05T01:09:45.796Z,5.40
2022-09-05T01:11:32.519Z,5.10
2022-09-05T01:13:17.312Z,5.37
2022-09-05T01:15:01.866Z,5.07
2022-09-05T01:16:59.491Z,5.03
2022-09-05T01:18:47.541Z,5.23
2022-09-05T01:20:38.442Z,5.30
2022-09-05T01:22:38.600Z,5.30
2022-09-05T01:24:28.160Z,5.00
2022-09-05T01:26:37.578Z,4.80
2022-09-05T01:29:15.589Z,4.93
2022-09-05T01:30:16.206Z,5.50
2022-09-05T01:32:06.424Z,6.00
2022-09-05T01:33:47.871Z,6.10
2022-09-05T01:36:03.673Z,5.20
2022-09-05T01:37:47.192Z,4.87
2022-09-05T01:39:53.599Z,4.50
2022-09-05T01:41:28.970Z,4.40
2022-09-05T01:43:15.120Z,4.70
2022-09-05T01:44:57.645Z,4.43
2022-09-05T01:46:37.104Z,5.63
2022-09-05T01:48:17.663Z,5.10
2022-09-05T01:50:01.113Z,4.83
2022-09-05T01:51:42.256Z,4.97
2022-09-05T01:53:32.480Z,4.90
2022-09-05T01:55:20.595Z,5.43
2022-09-05T01:57:03.134Z,5.17
2022-09-05T01:58:49.483Z,5.40
2022-09-05T02:00:25.157Z,5.40
2022-09-05T02:02:17.062Z,4.33
2022-09-05T02:04:00.526Z,4.50
2022-09-05T02:06:01.697Z,4.70
2022-09-05T02:07:46.736Z,4.40
2022-09-05T02:09:35.556Z,4.20
2022-09-05T02:11:10.038Z,4.97
2022-09-05T02:12:56.813Z,4.00
2022-09-05T02:14:44.056Z,4.53
2022-09-05T02:16:23.220Z,3.90
2022-09-05T02:17:59.256Z,3.90
2022-09-05T02:19:32.559Z,4.40
2022-09-05T02:21:11.329Z,4.57
2022-09-05T02:22:47.309Z,5.23
2022-09-05T02:24:24.261Z,5.00
2022-09-05T02:26:03.671Z,5.30
2022-09-05T02:28:05.760Z,5.70
2022-09-05T02:29:40.310Z,5.07
2022-09-05T02:31:20.133Z,4.87
2022-09-05T02:33:05.351Z,6.60
2022-09-05T02:34:42.862Z,5.47
2022-09-05T02:36:25.265Z,5.37
2022-09-05T02:41:26.138Z,5.93
2022-09-05T02:45:02.464Z,5.80
2022-09-05T02:45:17.000Z,5.47
2022-09-05T02:45:20.776Z,6.00
2022-09-05T02:46:01.891Z,5.70
2022-09-05T02:47:42.072Z,6.40
2022-09-05T02:50:20.590Z,6.33
2022-09-05T02:57:26.147Z,6.57
2022-09-05T02:57:27.799Z,6.30
2022-09-05T02:57:38.993Z,7.50
2022-09-05T02:58:06.085Z,6.87
2022-09-05T02:59:40.260Z,5.43
2022-09-05T03:01:20.876Z,6.70
2022-09-05T03:03:19.283Z,5.60
2022-09-05T03:05:06.720Z,6.40
2022-09-05T03:06:50.469Z,5.77
2022-09-05T03:08:42.177Z,5.80
2022-09-05T03:10:54.375Z,6.23
2022-09-05T03:13:00.226Z,6.83
2022-09-05T03:15:18.752Z,7.33
2022-09-05T03:17:24.309Z,6.80
2022-09-05T03:19:37.748Z,6.83
2022-09-05T03:21:47.231Z,5.87
2022-09-05T03:23:51.429Z,6.60
2022-09-05T03:25:56.680Z,7.87
2022-09-05T03:28:08.403Z,7.13
2022-09-05T03:30:05.822Z,7.07
2022-09-05T03:32:05.235Z,7.37
2022-09-05T03:34:04.011Z,6.83
2022-09-05T03:36:12.305Z,6.80
2022-09-05T03:38:07.539Z,7.10
2022-09-05T03:40:20.526Z,7.33
2022-09-05T03:42:14.597Z,6.40
2022-09-05T03:44:10.316Z,5.80
2022-09-05T03:46:02.766Z,5.53
2022-09-05T03:48:28.746Z,6.47
2022-09-05T03:53:46.908Z,6.47
2022-09-05T03:57:11.315Z,6.43
2022-09-05T03:57:28.306Z,6.20
2022-09-05T03:57:37.090Z,6.47
2022-09-05T03:59:48.029Z,5.77
2022-09-05T04:02:04.795Z,6.00
2022-09-05T04:08:07.407Z,7.40
2022-09-05T04:08:16.719Z,6.57
2022-09-05T04:08:18.072Z,7.07
2022-09-05T04:09:37.092Z,7.23
2022-09-05T04:11:17.921Z,6.30
2022-09-05T04:12:56.677Z,7.50
2022-09-05T04:14:44.721Z,6.50
2022-09-05T04:16:22.366Z,6.80
2022-09-05T04:18:04.021Z,6.00
2022-09-05T04:19:44.181Z,6.00
2022-09-05T04:21:28.545Z,6.77
2022-09-05T04:23:09.915Z,7.20
2022-09-05T04:24:53.780Z,6.83
2022-09-05T04:26:40.512Z,6.67
2022-09-05T04:28:27.608Z,7.20
2022-09-05T04:30:01.784Z,7.20
2022-09-05T04:31:47.020Z,6.77
2022-09-05T04:33:36.565Z,6.37
2022-09-05T04:35:23.934Z,6.60
2022-09-05T04:37:03.428Z,6.27
2022-09-05T04:38:38.301Z,6.00
2022-09-05T04:40:35.157Z,5.47
2022-09-05T04:42:21.195Z,6.70
2022-09-05T04:43:58.865Z,6.10
2022-09-05T04:45:38.384Z,6.40
2022-09-05T04:47:15.639Z,6.37
2022-09-05T04:48:57.444Z,7.20
2022-09-05T04:50:37.804Z,7.03
2022-09-05T04:52:31.481Z,6.33
2022-09-05T04:54:30.530Z,6.23
2022-09-05T04:56:10.682Z,6.70
2022-09-05T04:57:50.661Z,6.10
2022-09-05T05:00:38.188Z,7.43
2022-09-05T05:06:04.141Z,6.90
2022-09-05T05:06:10.311Z,7.37
2022-09-05T05:06:19.978Z,7.17
2022-09-05T05:07:23.408Z,6.77
2022-09-05T05:09:00.427Z,7.17
2022-09-05T05:14:17.607Z,8.23
2022-09-05T05:17:57.486Z,8.20
2022-09-05T05:18:06.875Z,9.17
2022-09-05T05:18:14.835Z,9.13
2022-09-05T05:18:54.987Z,10.10
2022-09-05T05:20:42.969Z,8.80
2022-09-05T05:22:18.197Z,8.20
2022-09-05T05:23:56.161Z,8.20
2022-09-05T05:25:29.063Z,8.07
2022-09-05T05:27:09.641Z,9.53
2022-09-05T05:28:55.441Z,10.73
2022-09-05T05:30:31.657Z,11.70
2022-09-05T05:32:06.252Z,11.63
2022-09-05T05:33:41.030Z,10.43
2022-09-05T05:35:15.922Z,9.90
2022-09-05T05:36:56.271Z,8.60
2022-09-05T05:38:41.095Z,8.37
2022-09-05T05:40:25.447Z,8.20
2022-09-05T05:42:05.264Z,7.17
2022-09-05T05:43:53.052Z,8.87
2022-09-05T05:45:29.331Z,7.70
2022-09-05T05:47:07.511Z,9.53
2022-09-05T05:48:45.627Z,7.73
2022-09-05T05:50:40.757Z,8.27
2022-09-05T05:52:52.117Z,8.63
2022-09-05T05:54:32.208Z,9.07
2022-09-05T05:56:38.789Z,9.03
2022-09-05T05:58:27.212Z,8.67
2022-09-05T06:00:14.796Z,7.47
2022-09-05T06:02:30.629Z,6.93
2022-09-05T06:04:29.948Z,8.03
2022-09-05T06:06:09.424Z,7.57
2022-09-05T06:09:40.780Z,8.10
2022-09-05T06:14:52.569Z,7.97
2022-09-05T06:14:57.125Z,6.40
2022-09-05T06:15:10.151Z,7.53
2022-09-05T06:17:27.915Z,7.03
2022-09-05T06:22:04.630Z,7.50
2022-09-05T06:22:20.697Z,7.37
2022-09-05T06:24:29.027Z,6.87
2022-09-05T06:26:13.917Z,9.27
2022-09-05T06:28:19.030Z,9.07
2022-09-05T06:29:59.681Z,8.30
2022-09-05T06:31:42.961Z,8.63
2022-09-05T06:33:29.429Z,9.77
2022-09-05T06:35:22.910Z,9.83
2022-09-05T06:37:01.308Z,10.33
2022-09-05T06:38:51.550Z,8.90
2022-09-05T06:40:31.994Z,9.93
2022-09-05T06:42:42.962Z,8.13
2022-09-05T06:44:40.546Z,8.00
2022-09-05T06:47:21.999Z,9.00
2022-09-05T06:48:44.293Z,8.60
2022-09-05T06:50:23.965Z,9.73
2022-09-05T06:52:28.607Z,9.87
2022-09-05T06:54:14.962Z,9.37
2022-09-05T06:56:05.336Z,10.07
2022-09-05T06:58:17.068Z,9.67
2022-09-05T07:00:22.530Z,9.80
2022-09-05T07:02:04.802Z,10.43
2022-09-05T07:03:56.014Z,9.93
2022-09-05T07:05:45.053Z,9.37
2022-09-05T07:07:27.521Z,9.37
2022-09-05T07:09:06.333Z,9.23
2022-09-05T07:10:45.871Z,9.33
2022-09-05T07:12:22.414Z,8.73
2022-09-05T07:14:04.630Z,8.07
2022-09-05T07:15:50.670Z,8.10
2022-09-05T07:17:44.534Z,9.03
2022-09-05T07:19:31.643Z,9.37
2022-09-05T07:21:18.050Z,9.47
2022-09-05T07:22:58.982Z,9.07
2022-09-05T07:24:55.521Z,9.00
2022-09-05T07:26:51.615Z,8.37
2022-09-05T07:28:26.116Z,8.33
2022-09-05T07:30:02.194Z,8.70
2022-09-05T07:31:39.229Z,8.67
2022-09-05T07:33:12.849Z,8.80
2022-09-05T07:34:48.933Z,7.67
2022-09-05T07:36:26.345Z,8.30
2022-09-05T07:38:09.997Z,7.60
2022-09-05T07:39:47.072Z,7.73
2022-09-05T07:41:24.848Z,7.13
2022-09-05T07:43:09.847Z,7.67
2022-09-05T07:44:49.041Z,8.00
2022-09-05T07:46:24.158Z,6.10
2022-09-05T07:48:02.403Z,6.33
2022-09-05T07:49:38.331Z,6.57
2022-09-05T07:56:47.163Z,6.33
2022-09-05T07:56:52.455Z,5.33
2022-09-05T07:57:10.790Z,4.00
2022-09-05T07:57:30.853Z,3.80
2022-09-05T07:59:08.356Z,3.60
2022-09-05T08:00:44.758Z,4.00
2022-09-05T08:02:17.585Z,4.13
2022-09-05T08:03:57.199Z,3.97
2022-09-05T08:05:40.842Z,3.57
2022-09-05T08:07:48.784Z,3.90
2022-09-05T08:09:59.594Z,3.60
2022-09-05T08:11:23.335Z,3.90
2022-09-05T08:13:23.968Z,3.50
2022-09-05T08:15:04.821Z,4.00
2022-09-05T08:16:41.995Z,3.50
2022-09-05T08:18:18.295Z,3.37
2022-09-05T08:20:08.499Z,3.60
2022-09-05T08:21:47.577Z,3.70
2022-09-05T08:23:34.226Z,3.50
2022-09-05T08:25:14.967Z,3.80
2022-09-05T08:26:51.673Z,4.37
2022-09-05T08:28:39.385Z,3.67
2022-09-05T08:30:26.652Z,3.57
2022-09-05T08:32:08.317Z,3.77
2022-09-05T08:33:41.749Z,3.67
2022-09-05T08:35:23.116Z,3.60
2022-09-05T08:36:57.632Z,3.60
2022-09-05T08:38:40.225Z,4.20
2022-09-05T08:40:25.459Z,3.97
2022-09-05T08:42:10.469Z,3.40
2022-09-05T08:46:36.822Z,4.13
2022-09-05T08:46:40.904Z,3.77
2022-09-05T08:47:55.383Z,4.00
2022-09-05T08:49:44.058Z,4.73
2022-09-05T08:51:29.370Z,4.83
2022-09-05T08:53:26.790Z,4.30
2022-09-05T08:55:14.346Z,4.70
2022-09-05T08:56:59.077Z,3.30
2022-09-05T08:58:46.486Z,3.63
2022-09-05T09:00:24.404Z,3.77
2022-09-05T09:02:45.524Z,3.70
2022-09-05T09:04:16.977Z,3.57
2022-09-05T09:06:35.118Z,3.60
2022-09-05T09:08:15.684Z,3.93
2022-09-05T09:09:58.021Z,3.40
2022-09-05T09:11:36.930Z,3.03
2022-09-05T09:13:23.357Z,3.00
2022-09-05T09:14:59.334Z,3.53
2022-09-05T09:16:38.232Z,3.60
2022-09-05T09:18:14.747Z,3.90
2022-09-05T09:19:51.804Z,3.70
2022-09-05T09:21:27.016Z,3.37
2022-09-05T09:23:05.405Z,3.77
2022-09-05T09:24:43.154Z,3.70
2022-09-05T09:26:25.423Z,3.20
2022-09-05T09:28:47.755Z,4.07
2022-09-05T09:30:22.399Z,3.70
2022-09-05T09:32:05.132Z,3.60
2022-09-05T09:33:42.867Z,3.50
2022-09-05T09:35:23.452Z,2.83
2022-09-05T09:37:12.489Z,3.57
2022-09-05T09:39:13.105Z,3.70
2022-09-05T09:41:38.927Z,2.80
2022-09-05T09:43:21.610Z,2.70
2022-09-05T09:45:33.964Z,2.70
2022-09-05T09:47:14.474Z,2.80
2022-09-05T09:49:23.395Z,2.70
2022-09-05T09:51:13.877Z,2.70
2022-09-05T09:53:04.643Z,2.50
2022-09-05T09:55:23.580Z,2.50
2022-09-05T09:57:15.304Z,2.10
2022-09-05T09:59:14.657Z,2.20
2022-09-05T10:00:54.617Z,2.30
2022-09-05T10:07:59.495Z,2.20
2022-09-05T10:10:33.406Z,2.17
2022-09-05T10:10:46.046Z,2.00
2022-09-05T10:10:51.341Z,2.40
2022-09-05T10:13:34.378Z,2.40
2022-09-05T10:15:31.327Z,2.42
2022-09-05T10:17:29.062Z,2.23
2022-09-05T10:24:18.989Z,2.40
2022-09-05T10:26:35.310Z,2.50
2022-09-05T10:28:19.282Z,2.60
2022-09-05T10:30:06.989Z,2.40
2022-09-05T10:34:39.441Z,2.28
2022-09-05T10:35:16.250Z,2.30
2022-09-05T10:35:51.844Z,2.00
2022-09-05T10:37:29.109Z,2.00
2022-09-05T10:39:16.924Z,2.27
2022-09-05T10:41:20.829Z,2.20
2022-09-05T10:42:59.877Z,2.63
2022-09-05T10:44:40.387Z,2.55
2022-09-05T10:46:49.803Z,2.40
2022-09-05T10:48:26.213Z,2.53
2022-09-05T10:50:09.264Z,2.45
2022-09-05T10:51:52.021Z,2.17
2022-09-05T10:53:39.328Z,2.30
2022-09-05T10:55:21.949Z,2.25
2022-09-05T10:57:04.598Z,2.57
2022-09-05T11:00:58.047Z,2.17
2022-09-05T11:02:21.037Z,2.40
2022-09-05T11:03:01.243Z,2.53
2022-09-05T11:04:49.850Z,2.83
2022-09-05T11:06:29.480Z,2.37
2022-09-05T11:08:09.033Z,2.13
2022-09-05T11:10:04.504Z,2.40
2022-09-05T11:11:45.914Z,2.37
2022-09-05T11:13:35.603Z,2.60
2022-09-05T11:15:19.742Z,2.30
2022-09-05T11:17:01.415Z,2.27
2022-09-05T11:19:00.525Z,2.63
2022-09-05T11:20:47.306Z,2.17
2022-09-05T11:22:24.472Z,2.33
2022-09-05T11:24:01.620Z,2.60
2022-09-05T11:25:39.743Z,2.30
2022-09-05T11:27:28.413Z,2.20
2022-09-05T11:29:06.561Z,2.20
2022-09-05T11:30:43.534Z,2.40
2022-09-05T11:39:47.153Z,2.53
2022-09-05T11:39:57.799Z,2.30
2022-09-05T11:39:59.336Z,2.50
2022-09-05T11:40:05.247Z,2.50
2022-09-05T11:42:19.846Z,2.40
2022-09-05T11:44:28.539Z,2.27
2022-09-05T11:46:23.666Z,2.10
2022-09-05T11:48:15.783Z,2.20
2022-09-05T11:50:14.207Z,2.27
2022-09-05T11:52:27.376Z,2.03
2022-09-05T11:54:24.767Z,2.13
2022-09-05T11:56:45.992Z,2.13
2022-09-05T11:58:48.802Z,2.00
2022-09-05T12:00:33.411Z,2.30
2022-09-05T12:02:37.841Z,2.40
2022-09-05T12:05:50.767Z,2.40
2022-09-05T12:07:26.945Z,2.10
2022-09-05T12:09:06.275Z,2.40
2022-09-05T12:10:59.220Z,2.20
2022-09-05T12:12:41.264Z,2.50
2022-09-05T12:14:33.595Z,2.10
2022-09-05T12:16:26.952Z,2.07
2022-09-05T12:18:18.885Z,2.10
2022-09-05T12:20:07.711Z,2.30
2022-09-05T12:22:08.921Z,2.40
2022-09-05T12:24:40.783Z,2.10
2022-09-05T12:27:38.832Z,2.20
2022-09-05T12:28:00.025Z,2.20
2022-09-05T12:30:00.085Z,2.30
2022-09-05T12:33:14.833Z,2.00
2022-09-05T12:36:07.376Z,2.67
2022-09-05T12:36:10.228Z,2.53
2022-09-05T12:40:53.780Z,2.40
2022-09-05T12:41:01.265Z,2.00
2022-09-05T12:42:13.691Z,2.20
2022-09-05T12:44:40.016Z,2.07
2022-09-05T12:45:41.151Z,2.47
2022-09-05T12:47:21.247Z,2.33
2022-09-05T12:49:07.389Z,2.23
2022-09-05T12:50:48.499Z,2.30
2022-09-05T12:52:37.357Z,2.17
2022-09-05T12:54:24.492Z,2.30
2022-09-05T12:58:15.149Z,2.20
2022-09-05T13:02:55.797Z,2.20
2022-09-05T13:03:00.954Z,2.20
2022-09-05T13:03:06.943Z,2.23
2022-09-05T13:04:26.581Z,2.17
2022-09-05T13:06:10.394Z,2.00
2022-09-05T13:07:59.597Z,2.47
2022-09-05T13:13:00.985Z,2.00
2022-09-05T13:14:49.976Z,1.90
2022-09-05T13:14:58.325Z,2.50
2022-09-05T13:15:29.564Z,2.27
2022-09-05T13:17:06.226Z,2.10
2022-09-05T13:18:42.465Z,2.00
2022-09-05T13:20:21.713Z,2.10
2022-09-05T13:21:57.388Z,2.30
2022-09-05T13:23:35.649Z,1.90
2022-09-05T13:25:12.398Z,2.40
2022-09-05T13:26:54.937Z,2.10
2022-09-05T13:28:35.182Z,2.10
2022-09-05T13:35:03.998Z,2.00
2022-09-05T13:38:02.656Z,1.97
2022-09-05T13:38:05.154Z,2.03
2022-09-05T13:38:16.164Z,2.30
2022-09-05T13:38:47.506Z,2.03
2022-09-05T13:40:05.722Z,1.90
2022-09-05T13:41:45.469Z,2.00
2022-09-05T13:43:26.391Z,1.93
2022-09-05T13:45:01.405Z,1.80
2022-09-05T13:46:44.792Z,1.90
2022-09-05T13:48:30.348Z,2.00
2022-09-05T13:50:17.317Z,2.10
2022-09-05T13:51:53.894Z,2.20
2022-09-05T13:53:36.789Z,1.90
2022-09-05T13:55:23.238Z,1.80
2022-09-05T13:57:07.141Z,2.00
2022-09-05T13:58:50.978Z,2.03
2022-09-05T14:01:24.194Z,1.90
2022-09-05T14:03:31.608Z,1.97
2022-09-05T14:05:25.804Z,2.20
2022-09-05T14:07:47.409Z,2.13
2022-09-05T14:09:56.333Z,1.90
2022-09-05T14:11:50.143Z,1.70
2022-09-05T14:13:27.459Z,1.90
2022-09-05T14:15:09.322Z,1.70
2022-09-05T14:16:54.075Z,1.60
2022-09-05T14:18:31.878Z,1.83
2022-09-05T14:20:26.739Z,2.13
2022-09-05T14:22:02.897Z,1.97
2022-09-05T14:23:45.406Z,2.00
2022-09-05T14:25:27.190Z,1.87
2022-09-05T14:27:11.839Z,2.10
2022-09-05T14:28:52.591Z,2.03
2022-09-05T14:33:41.756Z,1.90
2022-09-05T14:37:45.375Z,2.00
2022-09-05T14:37:45.452Z,1.70
2022-09-05T14:37:48.280Z,2.10
2022-09-05T14:39:22.846Z,1.80
2022-09-05T14:41:35.283Z,2.10
2022-09-05T14:43:52.523Z,1.80
2022-09-05T14:46:00.526Z,1.97
2022-09-05T14:47:50.220Z,2.10
2022-09-05T14:50:03.688Z,2.00
2022-09-05T14:51:46.445Z,2.10
2022-09-05T15:00:18.672Z,2.17
2022-09-05T15:02:41.134Z,2.00
2022-09-05T15:02:47.775Z,1.80
2022-09-05T15:03:06.833Z,3.07
2022-09-05T15:04:44.565Z,2.30
2022-09-05T15:06:21.122Z,2.40
2022-09-05T15:08:03.633Z,2.87
2022-09-05T15:12:14.601Z,8.03
2022-09-05T15:12:39.788Z,3.17
2022-09-05T15:14:21.165Z,2.30
2022-09-05T15:16:02.555Z,2.70
2022-09-05T15:17:36.888Z,2.20
2022-09-05T15:19:10.922Z,2.20
2022-09-05T15:20:45.959Z,2.10
2022-09-05T15:22:26.021Z,2.20
2022-09-05T15:24:02.577Z,1.97
2022-09-05T15:25:44.539Z,2.00
2022-09-05T15:27:18.927Z,1.97
2022-09-05T15:29:13.063Z,1.90
2022-09-05T15:30:58.589Z,2.20
2022-09-05T15:32:31.816Z,2.23
2022-09-05T15:34:21.811Z,2.00
2022-09-05T15:35:55.120Z,2.10
2022-09-05T15:37:36.755Z,1.90
2022-09-05T15:39:21.932Z,1.80
2022-09-05T15:41:09.653Z,2.30
2022-09-05T15:42:44.959Z,1.90
2022-09-05T15:44:24.031Z,2.10
2022-09-05T15:46:03.928Z,2.00
2022-09-05T15:47:38.178Z,1.97
2022-09-05T15:49:25.950Z,2.23
2022-09-05T15:51:02.455Z,2.30
2022-09-05T15:52:41.337Z,2.10
2022-09-05T15:54:33.862Z,2.23
2022-09-05T15:56:19.923Z,1.80
2022-09-05T15:57:56.375Z,2.03
2022-09-05T15:59:35.259Z,1.93
2022-09-05T16:01:15.626Z,1.97
2022-09-05T16:03:38.863Z,1.73
2022-09-05T16:10:30.534Z,2.00
2022-09-05T16:10:40.974Z,2.17
2022-09-05T16:10:45.945Z,2.00
2022-09-05T16:12:03.466Z,1.90
2022-09-05T16:13:17.783Z,1.87
2022-09-05T16:16:50.141Z,1.90
2022-09-05T16:23:13.281Z,2.47
2022-09-05T16:23:14.769Z,2.70
2022-09-05T16:23:20.088Z,3.20
2022-09-05T16:23:37.615Z,1.97
2022-09-05T16:24:59.908Z,2.00
2022-09-05T16:26:36.473Z,2.00
2022-09-05T16:28:16.886Z,2.40
2022-09-05T16:29:51.625Z,2.20
2022-09-05T16:31:32.955Z,2.10
2022-09-05T16:33:19.257Z,1.90
2022-09-05T16:34:54.878Z,1.90
2022-09-05T16:36:31.872Z,2.00
2022-09-05T16:38:12.815Z,2.20
2022-09-05T16:39:50.836Z,2.10
2022-09-05T16:41:31.368Z,2.00
2022-09-05T16:43:10.031Z,2.30
2022-09-05T16:44:47.173Z,1.87
2022-09-05T16:46:24.094Z,2.10
2022-09-05T16:48:10.697Z,1.80
2022-09-05T16:49:56.304Z,2.40
2022-09-05T16:51:36.618Z,1.90
2022-09-05T16:53:30.735Z,2.00
2022-09-05T16:55:09.821Z,1.97
2022-09-05T16:56:46.495Z,1.90
2022-09-05T16:58:23.470Z,1.97
2022-09-05T16:59:57.777Z,2.20
2022-09-05T17:02:05.691Z,2.03
2022-09-05T17:03:58.553Z,1.90
2022-09-05T17:05:36.296Z,1.80
2022-09-05T17:07:15.358Z,2.10
2022-09-05T17:08:48.524Z,1.80
2022-09-05T17:10:26.117Z,2.00
2022-09-05T17:12:02.188Z,1.80
2022-09-05T17:13:39.697Z,2.00
2022-09-05T17:15:16.275Z,2.00
2022-09-05T17:16:54.698Z,1.90
2022-09-05T17:18:34.135Z,1.80
2022-09-05T17:20:14.407Z,1.77
2022-09-05T17:26:21.712Z,1.73
2022-09-05T17:28:58.360Z,1.80
2022-09-05T17:29:25.566Z,2.00
2022-09-05T17:29:50.486Z,2.10
2022-09-05T17:31:56.980Z,1.90
2022-09-05T17:33:41.674Z,2.10
2022-09-05T17:35:42.580Z,1.97
2022-09-05T17:37:45.646Z,2.00
2022-09-05T17:39:44.342Z,1.77
2022-09-05T17:42:02.142Z,1.80
2022-09-05T17:43:38.534Z,1.90
2022-09-05T17:45:17.654Z,1.77
2022-09-05T17:47:06.588Z,1.90
2022-09-05T17:49:19.874Z,1.97
2022-09-05T17:50:54.712Z,2.10
2022-09-05T17:52:28.087Z,1.90
2022-09-05T17:54:27.061Z,2.10
2022-09-05T17:56:14.392Z,2.07
2022-09-05T17:57:49.678Z,2.20
2022-09-05T17:59:28.730Z,2.00
2022-09-05T18:01:16.214Z,1.87
2022-09-05T18:02:58.010Z,2.00
2022-09-05T18:04:46.396Z,2.10
2022-09-05T18:06:39.789Z,2.23
2022-09-05T18:08:54.165Z,2.17
2022-09-05T18:11:01.899Z,2.20
2022-09-05T18:13:13.933Z,2.20
2022-09-05T18:14:42.856Z,2.13
2022-09-05T18:16:45.443Z,1.77
2022-09-05T18:19:28.747Z,2.30
2022-09-05T18:20:42.994Z,2.13
2022-09-05T18:22:25.525Z,2.00
2022-09-05T18:24:03.815Z,2.00
2022-09-05T18:25:49.565Z,2.10
2022-09-05T18:27:35.106Z,1.80
2022-09-05T18:29:57.153Z,2.30
2022-09-05T18:31:57.103Z,2.20
2022-09-05T18:33:53.855Z,2.00
2022-09-05T18:35:36.976Z,1.90
2022-09-05T18:38:02.392Z,2.10
2022-09-05T18:39:43.247Z,2.03
2022-09-05T18:41:22.354Z,2.10
2022-09-05T18:42:55.272Z,2.40
2022-09-05T18:44:47.704Z,2.30
2022-09-05T18:46:23.832Z,2.00
2022-09-05T18:48:00.273Z,2.03
2022-09-05T18:50:25.753Z,1.97
2022-09-05T18:51:35.185Z,2.10
2022-09-05T18:53:13.011Z,2.10
2022-09-05T18:55:33.979Z,2.00
2022-09-05T18:57:24.110Z,2.00
2022-09-05T18:58:51.488Z,1.80
2022-09-05T19:00:33.343Z,1.93
2022-09-05T19:02:28.692Z,2.00
2022-09-05T19:04:40.936Z,2.03
2022-09-05T19:06:35.632Z,2.10
2022-09-05T19:08:28.857Z,2.00
2022-09-05T19:10:34.563Z,2.20
2022-09-05T19:12:33.673Z,1.90
2022-09-05T19:14:25.390Z,2.20
2022-09-05T19:16:18.174Z,2.10
2022-09-05T19:17:54.609Z,2.10
2022-09-05T19:20:31.401Z,1.77
2022-09-05T19:23:08.588Z,1.97
2022-09-05T19:24:03.186Z,1.93
2022-09-05T19:25:39.788Z,2.00
2022-09-05T19:28:26.362Z,2.00
2022-09-05T19:36:56.709Z,2.07
2022-09-05T19:37:03.967Z,2.10
2022-09-05T19:37:04.359Z,2.10
2022-09-05T19:37:15.286Z,1.73
2022-09-05T19:37:29.023Z,1.80
2022-09-05T19:40:07.763Z,2.07
2022-09-05T19:47:25.876Z,2.00
2022-09-05T19:47:27.604Z,2.10
2022-09-05T19:47:39.124Z,1.97
2022-09-05T19:47:41.874Z,2.20
2022-09-05T19:48:28.401Z,2.00
2022-09-05T19:50:06.099Z,2.00
2022-09-05T19:51:41.044Z,2.37
2022-09-05T19:53:16.159Z,2.00
2022-09-05T19:54:52.273Z,1.90
2022-09-05T19:56:33.448Z,2.13
2022-09-05T19:58:19.870Z,2.37
2022-09-05T19:59:55.898Z,1.93
2022-09-05T20:01:29.670Z,2.13
2022-09-05T20:03:02.982Z,2.20
2022-09-05T20:04:39.358Z,1.97
2022-09-05T20:06:29.094Z,2.23
2022-09-05T20:08:07.112Z,2.10
2022-09-05T20:09:43.351Z,2.00
2022-09-05T20:11:45.264Z,1.90
2022-09-05T20:13:25.466Z,2.17
2022-09-05T20:15:18.144Z,2.00
2022-09-05T20:16:52.531Z,2.00
2022-09-05T20:18:28.301Z,1.87
2022-09-05T20:20:10.700Z,2.07
2022-09-05T20:21:43.509Z,2.00
2022-09-05T20:23:16.317Z,2.10
2022-09-05T20:24:49.450Z,1.90
2022-09-05T20:26:24.758Z,1.90
2022-09-05T20:27:58.616Z,2.20
2022-09-05T20:29:54.164Z,2.00
2022-09-05T20:31:32.992Z,2.60
2022-09-05T20:33:14.984Z,2.23
2022-09-05T20:36:01.213Z,2.20
2022-09-05T20:43:11.928Z,2.30
2022-09-05T20:43:20.081Z,1.97
2022-09-05T20:43:28.334Z,2.27
2022-09-05T20:43:30.343Z,2.20
2022-09-05T20:44:24.873Z,2.10
2022-09-05T20:46:08.682Z,2.20
2022-09-05T20:50:22.332Z,2.30
2022-09-05T20:54:18.415Z,2.13
2022-09-05T20:54:28.193Z,2.20
2022-09-05T20:54:32.234Z,2.27
2022-09-05T20:55:38.559Z,2.20
2022-09-05T20:57:14.992Z,2.20
2022-09-05T20:58:50.061Z,2.20
2022-09-05T21:00:24.862Z,2.03
2022-09-05T21:02:04.047Z,2.10
2022-09-05T21:03:40.897Z,2.30
2022-09-05T21:05:26.775Z,2.10
2022-09-05T21:07:11.668Z,2.40
2022-09-05T21:08:44.454Z,2.30
2022-09-05T21:10:27.568Z,2.20
2022-09-05T21:12:09.105Z,2.53
2022-09-05T21:13:53.421Z,2.37
2022-09-05T21:15:53.601Z,2.27
2022-09-05T21:17:26.905Z,2.23
2022-09-05T21:18:59.767Z,2.60
2022-09-05T21:20:32.935Z,2.30
2022-09-05T21:22:08.573Z,2.00
2022-09-05T21:23:41.343Z,2.30
2022-09-05T21:25:23.660Z,2.20
2022-09-05T21:27:14.637Z,2.30
2022-09-05T21:29:03.902Z,2.13
2022-09-05T21:30:39.181Z,2.10
2022-09-05T21:32:13.604Z,2.20
2022-09-05T21:33:48.440Z,2.03
2022-09-05T21:35:34.721Z,2.17
2022-09-05T21:37:08.742Z,2.30
2022-09-05T21:38:43.099Z,2.30
2022-09-05T21:40:17.135Z,2.40
2022-09-05T21:41:59.425Z,2.30
2022-09-05T21:47:37.610Z,2.10
2022-09-05T21:47:41.523Z,2.30
2022-09-05T21:47:44.281Z,2.17
2022-09-05T21:49:19.905Z,2.20
2022-09-05T21:50:54.377Z,2.00
2022-09-05T21:52:27.824Z,2.00
2022-09-05T21:59:13.635Z,2.00
2022-09-05T21:59:16.895Z,2.07
2022-09-05T21:59:20.446Z,2.47
2022-09-05T21:59:57.754Z,2.03
2022-09-05T22:01:52.206Z,2.23
2022-09-05T22:03:25.874Z,2.60
2022-09-05T22:05:03.194Z,2.10
2022-09-05T22:06:36.922Z,2.40
2022-09-05T22:08:09.764Z,2.30
2022-09-05T22:09:42.563Z,2.80
2022-09-05T22:11:15.589Z,2.70
2022-09-05T22:12:48.868Z,2.63
2022-09-05T22:14:23.508Z,2.93
2022-09-05T22:15:57.066Z,2.70
2022-09-05T22:17:29.995Z,2.47
2022-09-05T22:19:02.878Z,3.07
2022-09-05T22:20:39.852Z,3.10
2022-09-05T22:22:17.078Z,2.53
2022-09-05T22:23:53.514Z,2.83
2022-09-05T22:25:29.556Z,3.03
2022-09-05T22:27:12.123Z,2.90
2022-09-05T22:28:48.846Z,3.20
2022-09-05T22:30:20.746Z,3.23
2022-09-05T22:31:55.087Z,3.03
2022-09-05T22:33:27.846Z,2.77
2022-09-05T22:34:59.626Z,2.60
2022-09-05T22:36:37.040Z,2.60
2022-09-05T22:38:19.265Z,2.70
2022-09-05T22:39:52.807Z,2.80
2022-09-05T22:41:30.351Z,2.87
2022-09-05T22:43:05.725Z,2.67
2022-09-05T22:44:39.017Z,3.03
2022-09-05T22:46:11.763Z,3.03
2022-09-05T22:47:44.522Z,3.07
2022-09-05T22:49:17.238Z,2.93
2022-09-05T22:50:50.043Z,2.90
2022-09-05T22:52:23.286Z,3.23
2022-09-05T22:53:56.098Z,3.10
2022-09-05T22:55:28.940Z,2.90
2022-09-05T22:57:02.130Z,2.90
2022-09-05T22:58:38.757Z,3.33
2022-09-05T23:00:12.520Z,3.20
2022-09-05T23:01:45.319Z,3.10
2022-09-05T23:03:18.121Z,2.80
2022-09-05T23:04:50.861Z,2.70
2022-09-05T23:06:23.595Z,3.07
2022-09-05T23:07:59.941Z,3.10
2022-09-05T23:09:32.655Z,2.80
2022-09-05T23:11:08.222Z,2.70
2022-09-05T23:12:40.936Z,2.80
2022-09-05T23:14:13.636Z,2.80
2022-09-05T23:15:46.626Z,3.03
2022-09-05T23:17:19.398Z,2.87
2022-09-05T23:18:52.148Z,2.83
2022-09-05T23:20:25.170Z,2.90
2022-09-05T23:21:57.997Z,2.63
2022-09-05T23:23:32.055Z,2.73
2022-09-05T23:25:04.278Z,3.10
2022-09-05T23:26:37.015Z,3.03
2022-09-05T23:28:11.040Z,3.20
2022-09-05T23:29:43.024Z,3.13
2022-09-05T23:31:15.846Z,3.20
2022-09-05T23:32:49.513Z,3.00
2022-09-05T23:34:22.448Z,3.50
2022-09-05T23:36:00.207Z,3.27
2022-09-05T23:37:32.925Z,3.13
2022-09-05T23:39:06.960Z,3.17
2022-09-05T23:40:39.291Z,2.83
2022-09-05T23:42:12.061Z,2.90
2022-09-05T23:43:44.824Z,3.60
2022-09-05T23:45:16.744Z,3.00
2022-09-05T23:46:49.460Z,3.23
2022-09-05T23:48:21.507Z,2.80
2022-09-05T23:49:54.231Z,3.30
2022-09-05T23:51:26.027Z,3.27
2022-09-05T23:53:04.374Z,2.70
2022-09-05T23:54:38.443Z,2.87
2022-09-05T23:56:12.186Z,3.40
2022-09-05T23:57:44.529Z,3.10
2022-09-05T23:59:17.257Z,3.20
